createdAt,value
2023-02-13T00:00:59.612Z,4.85
2023-02-13T00:04:04.644Z,4.87
2023-02-13T00:07:11.803Z,4.88
2023-02-13T00:10:16.393Z,4.87
2023-02-13T00:13:20.453Z,4.89
2023-02-13T00:16:24.351Z,4.92
2023-02-13T00:19:28.384Z,4.96
2023-02-13T00:22:37.116Z,4.98
2023-02-13T00:25:41.035Z,4.98
2023-02-13T00:28:45.645Z,4.98
2023-02-13T00:31:49.892Z,4.97
2023-02-13T00:34:54.091Z,4.99
2023-02-13T00:37:58.616Z,5.02
2023-02-13T00:41:03.457Z,5.06
2023-02-13T00:44:07.420Z,5.06
2023-02-13T00:47:14.814Z,5.07
2023-02-13T00:50:18.999Z,5.08
2023-02-13T00:53:24.892Z,5.08
2023-02-13T00:56:29.037Z,5.08
2023-02-13T00:59:32.943Z,5.09
2023-02-13T01:02:37.706Z,5.13
2023-02-13T01:05:42.193Z,5.19
2023-02-13T01:08:46.154Z,5.21
2023-02-13T01:11:50.165Z,5.21
2023-02-13T01:14:54.184Z,5.21
2023-02-13T01:17:58.773Z,5.23
2023-02-13T01:21:06.828Z,5.26
2023-02-13T01:24:11.452Z,5.30
2023-02-13T01:27:17.158Z,5.33
2023-02-13T01:30:22.041Z,5.36
2023-02-13T01:33:27.868Z,5.35
2023-02-13T01:36:31.928Z,5.35
2023-02-13T01:39:35.940Z,5.36
2023-02-13T01:42:40.146Z,5.37
2023-02-13T01:45:47.327Z,5.34
2023-02-13T01:48:54.724Z,5.32
2023-02-13T01:51:58.744Z,5.31
2023-02-13T01:55:03.546Z,5.30
2023-02-13T01:58:12.883Z,5.33
2023-02-13T02:01:17.568Z,5.37
2023-02-13T02:04:28.389Z,5.37
2023-02-13T02:07:33.479Z,5.40
2023-02-13T02:10:41.132Z,5.40
2023-02-13T02:13:46.372Z,5.36
2023-02-13T02:16:50.673Z,5.34
2023-02-13T02:20:00.596Z,5.38
2023-02-13T02:23:30.094Z,5.42
2023-02-13T02:26:46.413Z,5.43
2023-02-13T02:30:25.077Z,5.44
2023-02-13T02:33:41.730Z,5.42
2023-02-13T02:37:10.249Z,5.42
2023-02-13T02:40:42.427Z,5.41
2023-02-13T02:44:11.815Z,5.42
2023-02-13T02:48:07.143Z,5.45
2023-02-13T02:51:21.307Z,5.50
2023-02-13T02:55:02.949Z,5.50
2023-02-13T02:58:40.710Z,5.47
2023-02-13T03:02:04.376Z,5.43
2023-02-13T03:05:38.703Z,5.42
2023-02-13T03:09:10.044Z,5.42
2023-02-13T03:12:38.462Z,5.41
2023-02-13T03:16:03.705Z,5.41
2023-02-13T03:19:36.694Z,5.40
2023-02-13T03:23:13.947Z,5.36
2023-02-13T03:26:45.655Z,5.36
2023-02-13T03:30:11.454Z,5.37
2023-02-13T03:33:52.911Z,5.39
2023-02-13T03:37:25.211Z,5.42
2023-02-13T03:41:02.514Z,5.42
2023-02-13T03:44:23.731Z,5.40
2023-02-13T03:47:27.935Z,5.36
2023-02-13T03:50:32.067Z,5.36
2023-02-13T03:53:39.051Z,5.36
2023-02-13T03:57:04.062Z,5.38
2023-02-13T04:00:13.361Z,5.40
2023-02-13T04:03:45.678Z,5.41
2023-02-13T04:07:29.568Z,5.40
2023-02-13T04:10:37.844Z,5.35
2023-02-13T04:13:52.574Z,5.34
2023-02-13T04:17:04.317Z,5.37
2023-02-13T04:20:09.341Z,5.39
2023-02-13T04:23:13.978Z,5.39
2023-02-13T04:26:19.554Z,5.40
2023-02-13T04:29:25.235Z,5.40
2023-02-13T04:32:29.222Z,5.41
2023-02-13T04:35:33.520Z,5.43
2023-02-13T04:38:37.595Z,5.44
2023-02-13T04:41:41.548Z,5.44
2023-02-13T04:44:45.568Z,5.45
2023-02-13T04:47:54.157Z,5.47
2023-02-13T04:50:58.334Z,5.49
2023-02-13T04:54:02.646Z,5.52
2023-02-13T04:57:06.866Z,5.53
2023-02-13T05:00:12.031Z,5.52
2023-02-13T05:03:16.014Z,5.50
2023-02-13T05:06:19.985Z,5.48
2023-02-13T05:09:24.049Z,5.49
2023-02-13T05:12:27.942Z,5.50
2023-02-13T05:15:32.035Z,5.51
2023-02-13T05:18:36.086Z,5.51
2023-02-13T05:21:58.838Z,5.51
2023-02-13T05:25:03.133Z,5.48
2023-02-13T05:28:30.483Z,5.48
2023-02-13T05:31:34.611Z,5.50
2023-02-13T05:34:38.610Z,5.53
2023-02-13T05:37:42.584Z,5.56
2023-02-13T05:40:46.602Z,5.55
2023-02-13T05:43:50.612Z,5.53
2023-02-13T05:46:54.524Z,5.52
2023-02-13T05:49:58.657Z,5.51
2023-02-13T05:53:02.556Z,5.53
2023-02-13T05:56:07.390Z,5.55
2023-02-13T05:59:11.711Z,5.55
2023-02-13T06:02:15.759Z,5.55
2023-02-13T06:05:19.779Z,5.51
2023-02-13T06:08:24.298Z,5.49
2023-02-13T06:11:28.267Z,5.49
2023-02-13T06:14:32.612Z,5.51
2023-02-13T06:17:36.624Z,5.53
2023-02-13T06:20:40.723Z,5.51
2023-02-13T06:23:44.855Z,5.50
2023-02-13T06:26:48.876Z,5.52
2023-02-13T06:29:52.951Z,5.55
2023-02-13T06:32:57.727Z,5.57
2023-02-13T06:36:01.844Z,5.57
2023-02-13T06:39:05.838Z,5.55
2023-02-13T06:42:09.771Z,5.54
2023-02-13T06:45:14.702Z,5.55
2023-02-13T06:48:18.724Z,5.56
2023-02-13T06:51:22.717Z,5.57
2023-02-13T06:54:37.289Z,5.57
2023-02-13T06:57:49.296Z,5.56
2023-02-13T07:00:54.032Z,5.59
2023-02-13T07:03:58.258Z,5.63
2023-02-13T07:07:02.277Z,5.64
2023-02-13T07:10:09.125Z,5.64
2023-02-13T07:13:13.073Z,5.63
2023-02-13T07:16:17.186Z,5.62
2023-02-13T07:19:21.214Z,5.62
2023-02-13T07:22:25.328Z,5.66
2023-02-13T07:25:30.123Z,5.72
2023-02-13T07:28:34.122Z,5.75
2023-02-13T07:31:39.376Z,5.75
2023-02-13T07:34:59.585Z,5.75
2023-02-13T07:38:05.348Z,5.73
2023-02-13T07:41:09.283Z,5.76
2023-02-13T07:44:13.489Z,5.79
2023-02-13T07:47:19.791Z,5.80
2023-02-13T07:50:24.300Z,5.83
2023-02-13T07:53:29.284Z,5.87
2023-02-13T07:56:33.293Z,5.93
2023-02-13T07:59:37.385Z,5.99
2023-02-13T08:02:41.994Z,6.06
2023-02-13T08:05:48.791Z,6.12
2023-02-13T08:09:13.242Z,6.15
2023-02-13T08:12:17.519Z,6.16
2023-02-13T08:15:21.486Z,6.16
2023-02-13T08:18:25.536Z,6.15
2023-02-13T08:21:31.118Z,6.16
2023-02-13T08:24:35.295Z,6.18
2023-02-13T08:27:39.308Z,6.15
2023-02-13T08:30:43.375Z,6.15
2023-02-13T08:33:47.447Z,6.16
2023-02-13T08:36:51.579Z,6.22
2023-02-13T08:39:55.533Z,6.28
2023-02-13T08:43:01.541Z,6.36
2023-02-13T08:46:05.879Z,6.45
2023-02-13T08:49:09.983Z,6.52
2023-02-13T08:52:14.074Z,6.54
2023-02-13T08:55:18.322Z,6.53
2023-02-13T08:58:23.135Z,6.57
2023-02-13T09:01:27.236Z,6.56
2023-02-13T09:04:31.424Z,6.58
2023-02-13T09:07:35.411Z,6.63
2023-02-13T09:10:41.095Z,6.72
2023-02-13T09:13:47.744Z,6.80
2023-02-13T09:16:51.754Z,6.81
2023-02-13T09:19:55.687Z,6.79
2023-02-13T09:22:59.608Z,6.82
2023-02-13T09:26:05.956Z,6.88
2023-02-13T09:29:10.120Z,6.95
2023-02-13T09:32:14.144Z,7.03
2023-02-13T09:35:18.951Z,7.07
2023-02-13T09:38:22.966Z,7.08
2023-02-13T09:41:35.712Z,7.11
2023-02-13T09:44:43.551Z,7.11
2023-02-13T09:47:48.796Z,7.13
2023-02-13T09:50:53.221Z,7.15
2023-02-13T09:54:06.576Z,7.19
2023-02-13T09:57:19.677Z,7.20
2023-02-13T10:00:34.800Z,7.14
2023-02-13T10:03:51.396Z,7.09
2023-02-13T10:07:34.114Z,7.03
2023-02-13T10:10:52.764Z,7.00
2023-02-13T10:14:18.087Z,6.97
2023-02-13T10:17:37.004Z,6.94
2023-02-13T10:20:50.793Z,6.87
2023-02-13T10:23:59.729Z,6.83
2023-02-13T10:27:21.168Z,6.82
2023-02-13T10:30:32.341Z,6.77
2023-02-13T10:33:48.033Z,6.76
2023-02-13T10:36:52.512Z,6.79
2023-02-13T10:39:57.282Z,6.81
2023-02-13T10:43:01.202Z,6.81
2023-02-13T10:46:44.198Z,6.83
2023-02-13T10:50:24.923Z,6.87
2023-02-13T10:53:34.670Z,6.87
2023-02-13T10:56:48.610Z,6.82
2023-02-13T11:00:18.568Z,6.81
2023-02-13T11:03:25.949Z,6.80
2023-02-13T11:06:30.457Z,6.84
2023-02-13T11:09:40.494Z,6.87
2023-02-13T11:12:45.064Z,6.88
2023-02-13T11:16:05.448Z,6.90
2023-02-13T11:19:25.428Z,6.90
2023-02-13T11:22:29.741Z,6.85
2023-02-13T11:25:33.978Z,6.82
2023-02-13T11:28:48.125Z,6.79
2023-02-13T11:32:23.016Z,6.75
2023-02-13T11:35:31.108Z,6.77
2023-02-13T11:38:36.001Z,6.82
2023-02-13T11:41:43.173Z,6.86
2023-02-13T11:44:54.148Z,6.88
2023-02-13T11:47:58.639Z,6.92
2023-02-13T11:51:04.310Z,6.96
2023-02-13T11:54:24.963Z,7.00
2023-02-13T11:57:34.901Z,7.05
2023-02-13T12:00:41.483Z,7.11
2023-02-13T12:03:57.980Z,7.19
2023-02-13T12:07:12.531Z,7.27
2023-02-13T12:10:28.167Z,7.30
2023-02-13T12:13:39.347Z,7.32
2023-02-13T12:16:50.763Z,7.38
2023-02-13T12:19:55.770Z,7.44
2023-02-13T12:23:19.952Z,7.49
2023-02-13T12:26:31.965Z,7.51
2023-02-13T12:29:48.263Z,7.50
2023-02-13T12:33:05.457Z,7.49
2023-02-13T12:36:52.315Z,7.45
2023-02-13T12:40:02.282Z,7.37
2023-02-13T12:43:23.277Z,7.31
2023-02-13T12:46:47.874Z,7.31
2023-02-13T12:50:16.059Z,7.30
2023-02-13T12:53:27.193Z,7.31
2023-02-13T12:56:53.540Z,7.31
2023-02-13T13:00:42.549Z,7.30
2023-02-13T13:03:46.672Z,7.26
2023-02-13T13:07:00.620Z,7.25
2023-02-13T13:10:35.545Z,7.28
2023-02-13T13:13:39.479Z,7.29
2023-02-13T13:16:45.303Z,7.29
2023-02-13T13:20:08.812Z,7.27
2023-02-13T13:23:21.937Z,7.29
2023-02-13T13:26:32.112Z,7.31
2023-02-13T13:30:02.861Z,7.31
2023-02-13T13:33:17.620Z,7.36
2023-02-13T13:36:32.588Z,7.36
2023-02-13T13:39:55.016Z,7.37
2023-02-13T13:43:11.412Z,7.38
2023-02-13T13:46:45.659Z,7.35
2023-02-13T13:49:53.941Z,7.32
2023-02-13T13:53:11.620Z,7.27
2023-02-13T13:56:16.119Z,7.23
2023-02-13T13:59:51.851Z,7.22
2023-02-13T14:02:58.675Z,7.19
2023-02-13T14:06:09.655Z,7.17
2023-02-13T14:09:38.757Z,7.12
2023-02-13T14:12:48.611Z,7.10
2023-02-13T14:15:53.443Z,7.09
2023-02-13T14:18:57.562Z,7.05
2023-02-13T14:22:19.668Z,7.02
2023-02-13T14:25:28.419Z,7.00
2023-02-13T14:28:32.465Z,6.99
2023-02-13T14:31:40.443Z,6.98
2023-02-13T14:34:53.679Z,6.97
2023-02-13T14:38:00.277Z,6.92
2023-02-13T14:41:05.710Z,6.88
2023-02-13T14:44:39.316Z,6.83
2023-02-13T14:47:51.017Z,6.82
2023-02-13T14:50:58.201Z,6.82
2023-02-13T14:54:18.401Z,6.81
2023-02-13T14:57:31.975Z,6.78
2023-02-13T15:00:43.229Z,6.74
2023-02-13T15:03:54.800Z,6.70
2023-02-13T15:07:01.443Z,6.69
2023-02-13T15:10:27.440Z,6.70
2023-02-13T15:13:41.071Z,6.72
2023-02-13T15:16:49.161Z,6.72
2023-02-13T15:19:56.273Z,6.69
2023-02-13T15:23:00.718Z,6.66
2023-02-13T15:26:07.023Z,6.63
2023-02-13T15:29:27.917Z,6.65
2023-02-13T15:32:39.569Z,6.67
2023-02-13T15:35:43.862Z,6.64
2023-02-13T15:38:48.111Z,6.61
2023-02-13T15:41:59.221Z,6.57
2023-02-13T15:45:03.277Z,6.52
2023-02-13T15:48:07.325Z,6.50
2023-02-13T15:51:19.945Z,6.50
2023-02-13T15:54:31.542Z,6.49
2023-02-13T15:57:35.887Z,6.47
2023-02-13T16:00:42.844Z,6.46
2023-02-13T16:03:51.526Z,6.41
2023-02-13T16:06:57.522Z,6.36
2023-02-13T16:10:33.585Z,6.34
2023-02-13T16:13:37.600Z,6.33
2023-02-13T16:16:44.205Z,6.31
2023-02-13T16:20:01.877Z,6.30
2023-02-13T16:23:18.138Z,6.30
2023-02-13T16:26:22.250Z,6.27
2023-02-13T16:29:27.495Z,6.24
2023-02-13T16:32:34.446Z,6.25
2023-02-13T16:35:42.711Z,6.25
2023-02-13T16:38:49.468Z,6.23
2023-02-13T16:41:53.698Z,6.22
2023-02-13T16:45:23.379Z,6.20
2023-02-13T16:48:27.309Z,6.17
2023-02-13T16:51:38.850Z,6.17
2023-02-13T16:55:03.315Z,6.19
2023-02-13T16:58:18.390Z,6.21
2023-02-13T17:01:22.404Z,6.21
2023-02-13T17:04:26.559Z,6.20
2023-02-13T17:07:46.932Z,6.17
2023-02-13T17:11:08.563Z,6.16
2023-02-13T17:14:12.476Z,6.15
2023-02-13T17:17:20.765Z,6.15
2023-02-13T17:20:27.885Z,6.15
2023-02-13T17:23:31.866Z,6.16
2023-02-13T17:26:35.904Z,6.16
2023-02-13T17:29:39.931Z,6.14
2023-02-13T17:32:46.700Z,6.12
2023-02-13T17:35:51.299Z,6.09
2023-02-13T17:38:55.342Z,6.08
2023-02-13T17:41:59.885Z,6.09
2023-02-13T17:45:04.560Z,6.10
2023-02-13T17:48:09.234Z,6.08
2023-02-13T17:51:14.249Z,6.08
2023-02-13T17:54:18.227Z,6.05
2023-02-13T17:57:22.198Z,6.04
2023-02-13T18:00:29.553Z,6.01
2023-02-13T18:03:33.480Z,5.99
2023-02-13T18:06:37.411Z,5.96
2023-02-13T18:09:41.633Z,5.96
2023-02-13T18:12:47.400Z,5.97
2023-02-13T18:15:52.300Z,5.99
2023-02-13T18:18:56.454Z,6.03
2023-02-13T18:22:00.470Z,6.04
2023-02-13T18:25:05.565Z,6.02
2023-02-13T18:28:09.615Z,5.98
2023-02-13T18:31:14.435Z,5.93
2023-02-13T18:34:19.886Z,5.92
2023-02-13T18:37:23.870Z,5.92
2023-02-13T18:40:27.778Z,5.92
2023-02-13T18:43:31.760Z,5.93
2023-02-13T18:46:35.934Z,5.94
2023-02-13T18:49:40.083Z,5.93
2023-02-13T18:52:44.021Z,5.92
2023-02-13T18:55:48.018Z,5.90
2023-02-13T18:58:52.012Z,5.89
2023-02-13T19:01:56.067Z,5.87
2023-02-13T19:05:01.195Z,5.88
2023-02-13T19:08:05.788Z,5.90
2023-02-13T19:11:15.391Z,5.93
2023-02-13T19:14:19.357Z,5.96
2023-02-13T19:17:23.305Z,5.95
2023-02-13T19:20:27.708Z,5.93
2023-02-13T19:23:32.300Z,5.89
2023-02-13T19:26:36.547Z,5.88
2023-02-13T19:29:40.594Z,5.83
2023-02-13T19:32:44.744Z,5.78
2023-02-13T19:36:00.511Z,5.74
2023-02-13T19:39:06.754Z,5.75
2023-02-13T19:42:10.740Z,5.78
2023-02-13T19:45:14.971Z,5.79
2023-02-13T19:48:19.168Z,5.80
2023-02-13T19:51:34.019Z,5.79
2023-02-13T19:54:38.122Z,5.78
2023-02-13T19:57:42.133Z,5.76
2023-02-13T20:00:46.144Z,5.73
2023-02-13T20:03:51.301Z,5.72
2023-02-13T20:06:58.454Z,5.69
2023-02-13T20:10:02.490Z,5.67
2023-02-13T20:13:06.512Z,5.68
2023-02-13T20:16:14.237Z,5.69
2023-02-13T20:19:18.214Z,5.71
2023-02-13T20:22:22.336Z,5.73
2023-02-13T20:25:30.249Z,5.72
2023-02-13T20:28:34.377Z,5.70
2023-02-13T20:31:41.611Z,5.67
2023-02-13T20:34:59.025Z,5.63
2023-02-13T20:38:04.582Z,5.60
2023-02-13T20:41:14.008Z,5.61
2023-02-13T20:44:20.449Z,5.64
2023-02-13T20:47:24.675Z,5.66
2023-02-13T20:50:29.102Z,5.66
2023-02-13T20:53:33.781Z,5.66
2023-02-13T20:56:38.444Z,5.65
2023-02-13T20:59:43.251Z,5.63
2023-02-13T21:02:47.252Z,5.60
2023-02-13T21:05:51.428Z,5.56
2023-02-13T21:08:56.060Z,5.55
2023-02-13T21:12:00.147Z,5.57
2023-02-13T21:15:04.184Z,5.58
2023-02-13T21:18:09.552Z,5.58
2023-02-13T21:21:13.809Z,5.58
2023-02-13T21:24:21.576Z,5.57
2023-02-13T21:27:25.580Z,5.54
2023-02-13T21:30:29.560Z,5.50
2023-02-13T21:33:33.712Z,5.48
2023-02-13T21:36:40.595Z,5.48
2023-02-13T21:39:44.516Z,5.50
2023-02-13T21:42:52.730Z,5.51
2023-02-13T21:46:06.607Z,5.50
2023-02-13T21:49:16.426Z,5.48
2023-02-13T21:52:20.433Z,5.46
2023-02-13T21:55:25.182Z,5.41
2023-02-13T21:58:32.168Z,5.40
2023-02-13T22:01:37.877Z,5.41
2023-02-13T22:04:42.404Z,5.43
2023-02-13T22:08:04.996Z,5.43
2023-02-13T22:11:09.022Z,5.42
2023-02-13T22:14:17.170Z,5.42
2023-02-13T22:17:22.319Z,5.39
2023-02-13T22:20:26.501Z,5.35
2023-02-13T22:23:30.779Z,5.34
2023-02-13T22:26:37.795Z,5.36
2023-02-13T22:29:41.821Z,5.36
2023-02-13T22:32:45.837Z,5.35
2023-02-13T22:35:50.331Z,5.33
2023-02-13T22:38:54.586Z,5.32
2023-02-13T22:41:58.581Z,5.30
2023-02-13T22:45:02.623Z,5.27
2023-02-13T22:48:07.053Z,5.28
2023-02-13T22:51:12.383Z,5.32
2023-02-13T22:54:16.398Z,5.35
2023-02-13T22:57:20.290Z,5.38
2023-02-13T23:00:24.716Z,5.36
2023-02-13T23:03:32.027Z,5.34
2023-02-13T23:06:36.145Z,5.31
2023-02-13T23:09:40.156Z,5.30
2023-02-13T23:12:46.330Z,5.27
2023-02-13T23:15:51.682Z,5.28
2023-02-13T23:18:57.294Z,5.30
2023-02-13T23:22:01.742Z,5.33
2023-02-13T23:25:06.351Z,5.34
2023-02-13T23:28:10.289Z,5.35
2023-02-13T23:31:14.506Z,5.33
2023-02-13T23:34:19.146Z,5.32
2023-02-13T23:37:23.146Z,5.34
2023-02-13T23:40:27.170Z,5.34
2023-02-13T23:43:31.191Z,5.37
2023-02-13T23:46:35.266Z,5.39
2023-02-13T23:49:39.427Z,5.40
2023-02-13T23:52:43.372Z,5.38
2023-02-13T23:55:48.660Z,5.35
2023-02-13T23:58:53.299Z,5.32
